sensor_id;sensor_type;location;lat;lon;timestamp;temperature;humidity
5972;DHT22;3012;49.944;8.454;2023-07-13T00:00:53;21.90;57.60
5972;DHT22;3012;49.944;8.454;2023-07-13T00:03:24;21.80;57.10
5972;DHT22;3012;49.944;8.454;2023-07-13T00:06:00;21.80;57.20
5972;DHT22;3012;49.944;8.454;2023-07-13T00:08:31;22.20;57.80
5972;DHT22;3012;49.944;8.454;2023-07-13T00:11:03;21.90;57.70
5972;DHT22;3012;49.944;8.454;2023-07-13T00:13:36;21.80;57.50
5972;DHT22;3012;49.944;8.454;2023-07-13T00:16:08;21.80;57.80
5972;DHT22;3012;49.944;8.454;2023-07-13T00:18:40;21.80;57.70
5972;DHT22;3012;49.944;8.454;2023-07-13T00:21:11;21.80;57.60
5972;DHT22;3012;49.944;8.454;2023-07-13T00:23:42;21.80;57.70
5972;DHT22;3012;49.944;8.454;2023-07-13T00:26:14;21.80;57.60
5972;DHT22;3012;49.944;8.454;2023-07-13T00:28:46;21.70;57.90
5972;DHT22;3012;49.944;8.454;2023-07-13T00:31:17;21.70;58.00
5972;DHT22;3012;49.944;8.454;2023-07-13T00:33:47;21.60;58.00
5972;DHT22;3012;49.944;8.454;2023-07-13T00:36:20;21.50;58.10
5972;DHT22;3012;49.944;8.454;2023-07-13T00:38:50;21.50;58.30
5972;DHT22;3012;49.944;8.454;2023-07-13T00:41:22;21.50;58.30
5972;DHT22;3012;49.944;8.454;2023-07-13T00:43:58;21.50;58.70
5972;DHT22;3012;49.944;8.454;2023-07-13T00:46:30;21.50;58.50
5972;DHT22;3012;49.944;8.454;2023-07-13T00:49:04;21.50;58.50
5972;DHT22;3012;49.944;8.454;2023-07-13T00:51:37;21.50;58.50
5972;DHT22;3012;49.944;8.454;2023-07-13T00:54:13;21.50;58.60
5972;DHT22;3012;49.944;8.454;2023-07-13T00:56:48;21.50;58.70
5972;DHT22;3012;49.944;8.454;2023-07-13T00:59:20;21.50;58.80
5972;DHT22;3012;49.944;8.454;2023-07-13T01:01:51;21.50;58.50
5972;DHT22;3012;49.944;8.454;2023-07-13T01:04:24;21.40;58.80
5972;DHT22;3012;49.944;8.454;2023-07-13T01:06:54;21.40;59.00
5972;DHT22;3012;49.944;8.454;2023-07-13T01:09:26;21.40;58.70
5972;DHT22;3012;49.944;8.454;2023-07-13T01:11:57;21.30;58.90
5972;DHT22;3012;49.944;8.454;2023-07-13T01:14:29;21.40;59.00
5972;DHT22;3012;49.944;8.454;2023-07-13T01:17:00;21.30;59.00
5972;DHT22;3012;49.944;8.454;2023-07-13T01:19:35;21.30;59.00
5972;DHT22;3012;49.944;8.454;2023-07-13T01:22:09;21.10;59.30
5972;DHT22;3012;49.944;8.454;2023-07-13T01:24:41;21.10;59.80
5972;DHT22;3012;49.944;8.454;2023-07-13T01:27:13;21.10;59.90
5972;DHT22;3012;49.944;8.454;2023-07-13T01:29:45;21.00;59.80
5972;DHT22;3012;49.944;8.454;2023-07-13T01:32:17;21.00;59.90
5972;DHT22;3012;49.944;8.454;2023-07-13T01:34:53;21.00;60.00
5972;DHT22;3012;49.944;8.454;2023-07-13T01:37:26;21.00;60.10
5972;DHT22;3012;49.944;8.454;2023-07-13T01:39:56;20.90;60.40
5972;DHT22;3012;49.944;8.454;2023-07-13T01:42:26;20.90;60.80
5972;DHT22;3012;49.944;8.454;2023-07-13T01:44:58;20.90;60.70
5972;DHT22;3012;49.944;8.454;2023-07-13T01:47:28;20.80;60.50
5972;DHT22;3012;49.944;8.454;2023-07-13T01:49:59;20.80;60.90
5972;DHT22;3012;49.944;8.454;2023-07-13T01:52:31;20.80;61.10
5972;DHT22;3012;49.944;8.454;2023-07-13T01:55:01;20.70;61.30
5972;DHT22;3012;49.944;8.454;2023-07-13T01:57:31;20.70;61.50
5972;DHT22;3012;49.944;8.454;2023-07-13T02:00:04;20.80;61.50
5972;DHT22;3012;49.944;8.454;2023-07-13T02:02:34;20.90;61.90
5972;DHT22;3012;49.944;8.454;2023-07-13T02:05:05;20.70;62.10
5972;DHT22;3012;49.944;8.454;2023-07-13T02:07:38;20.60;62.30
5972;DHT22;3012;49.944;8.454;2023-07-13T02:10:09;20.90;62.30
5972;DHT22;3012;49.944;8.454;2023-07-13T02:12:41;20.80;62.00
5972;DHT22;3012;49.944;8.454;2023-07-13T02:15:11;20.60;61.80
5972;DHT22;3012;49.944;8.454;2023-07-13T02:17:41;20.70;62.10
5972;DHT22;3012;49.944;8.454;2023-07-13T02:20:11;20.50;61.70
5972;DHT22;3012;49.944;8.454;2023-07-13T02:22:43;20.40;62.00
5972;DHT22;3012;49.944;8.454;2023-07-13T02:25:13;20.30;62.00
5972;DHT22;3012;49.944;8.454;2023-07-13T02:27:44;20.30;62.50
5972;DHT22;3012;49.944;8.454;2023-07-13T02:30:14;19.90;61.70
5972;DHT22;3012;49.944;8.454;2023-07-13T02:32:44;20.30;62.20
5972;DHT22;3012;49.944;8.454;2023-07-13T02:35:15;20.50;62.40
5972;DHT22;3012;49.944;8.454;2023-07-13T02:37:48;19.80;61.80
5972;DHT22;3012;49.944;8.454;2023-07-13T02:40:18;20.00;61.90
5972;DHT22;3012;49.944;8.454;2023-07-13T02:42:49;20.30;62.30
5972;DHT22;3012;49.944;8.454;2023-07-13T02:45:19;19.80;62.10
5972;DHT22;3012;49.944;8.454;2023-07-13T02:47:49;20.20;62.70
5972;DHT22;3012;49.944;8.454;2023-07-13T02:50:19;20.40;63.10
5972;DHT22;3012;49.944;8.454;2023-07-13T02:52:51;20.20;62.90
5972;DHT22;3012;49.944;8.454;2023-07-13T02:55:21;20.30;63.30
5972;DHT22;3012;49.944;8.454;2023-07-13T02:57:52;20.20;63.50
5972;DHT22;3012;49.944;8.454;2023-07-13T03:00:22;20.10;63.50
5972;DHT22;3012;49.944;8.454;2023-07-13T03:02:52;19.80;63.20
5972;DHT22;3012;49.944;8.454;2023-07-13T03:05:25;19.80;63.50
5972;DHT22;3012;49.944;8.454;2023-07-13T03:07:57;19.70;64.20
5972;DHT22;3012;49.944;8.454;2023-07-13T03:10:27;20.00;64.90
5972;DHT22;3012;49.944;8.454;2023-07-13T03:12:57;19.90;64.80
5972;DHT22;3012;49.944;8.454;2023-07-13T03:15:28;19.90;65.20
5972;DHT22;3012;49.944;8.454;2023-07-13T03:17:58;19.90;65.90
5972;DHT22;3012;49.944;8.454;2023-07-13T03:20:31;19.80;65.80
5972;DHT22;3012;49.944;8.454;2023-07-13T03:23:04;19.60;66.30
5972;DHT22;3012;49.944;8.454;2023-07-13T03:25:34;19.80;66.40
5972;DHT22;3012;49.944;8.454;2023-07-13T03:28:04;19.40;66.50
5972;DHT22;3012;49.944;8.454;2023-07-13T03:30:35;19.50;66.30
5972;DHT22;3012;49.944;8.454;2023-07-13T03:33:05;19.60;66.90
5972;DHT22;3012;49.944;8.454;2023-07-13T03:35:35;19.60;67.20
5972;DHT22;3012;49.944;8.454;2023-07-13T03:38:11;19.50;67.40
5972;DHT22;3012;49.944;8.454;2023-07-13T03:40:42;19.60;67.50
5972;DHT22;3012;49.944;8.454;2023-07-13T03:43:13;19.30;68.00
5972;DHT22;3012;49.944;8.454;2023-07-13T03:45:43;19.20;68.40
5972;DHT22;3012;49.944;8.454;2023-07-13T03:48:13;19.50;68.80
5972;DHT22;3012;49.944;8.454;2023-07-13T03:50:46;19.30;69.10
5972;DHT22;3012;49.944;8.454;2023-07-13T03:53:19;19.20;69.10
5972;DHT22;3012;49.944;8.454;2023-07-13T03:55:50;19.20;69.50
5972;DHT22;3012;49.944;8.454;2023-07-13T03:58:31;19.10;69.90
5972;DHT22;3012;49.944;8.454;2023-07-13T04:01:02;19.10;69.20
5972;DHT22;3012;49.944;8.454;2023-07-13T04:03:34;19.20;69.60
5972;DHT22;3012;49.944;8.454;2023-07-13T04:06:06;19.20;69.70
5972;DHT22;3012;49.944;8.454;2023-07-13T04:08:39;19.10;69.80
5972;DHT22;3012;49.944;8.454;2023-07-13T04:11:09;19.10;69.90
5972;DHT22;3012;49.944;8.454;2023-07-13T04:13:39;19.00;70.00
5972;DHT22;3012;49.944;8.454;2023-07-13T04:16:09;19.10;70.00
5972;DHT22;3012;49.944;8.454;2023-07-13T04:18:40;19.00;70.20
5972;DHT22;3012;49.944;8.454;2023-07-13T04:21:10;19.40;70.70
5972;DHT22;3012;49.944;8.454;2023-07-13T04:23:44;19.10;70.20
5972;DHT22;3012;49.944;8.454;2023-07-13T04:26:15;19.10;70.60
5972;DHT22;3012;49.944;8.454;2023-07-13T04:28:50;19.10;70.60
5972;DHT22;3012;49.944;8.454;2023-07-13T04:31:22;19.20;70.40
5972;DHT22;3012;49.944;8.454;2023-07-13T04:33:52;18.90;69.80
5972;DHT22;3012;49.944;8.454;2023-07-13T04:36:23;19.10;70.20
5972;DHT22;3012;49.944;8.454;2023-07-13T04:38:56;19.20;70.00
5972;DHT22;3012;49.944;8.454;2023-07-13T04:41:26;19.20;70.00
5972;DHT22;3012;49.944;8.454;2023-07-13T04:43:57;19.10;69.60
5972;DHT22;3012;49.944;8.454;2023-07-13T04:46:28;19.20;69.80
5972;DHT22;3012;49.944;8.454;2023-07-13T04:48:58;19.20;69.30
5972;DHT22;3012;49.944;8.454;2023-07-13T04:51:28;19.20;69.50
5972;DHT22;3012;49.944;8.454;2023-07-13T04:54:01;19.30;69.30
5972;DHT22;3012;49.944;8.454;2023-07-13T04:56:33;19.20;69.10
5972;DHT22;3012;49.944;8.454;2023-07-13T04:59:04;19.30;69.60
5972;DHT22;3012;49.944;8.454;2023-07-13T05:01:35;19.30;69.60
5972;DHT22;3012;49.944;8.454;2023-07-13T05:04:06;18.90;69.90
5972;DHT22;3012;49.944;8.454;2023-07-13T05:06:40;19.20;70.40
5972;DHT22;3012;49.944;8.454;2023-07-13T05:09:13;19.50;70.00
5972;DHT22;3012;49.944;8.454;2023-07-13T05:11:45;19.40;69.50
5972;DHT22;3012;49.944;8.454;2023-07-13T05:14:17;19.30;69.20
5972;DHT22;3012;49.944;8.454;2023-07-13T05:16:48;19.50;69.20
5972;DHT22;3012;49.944;8.454;2023-07-13T05:19:20;19.20;69.30
5972;DHT22;3012;49.944;8.454;2023-07-13T05:21:51;19.50;69.20
5972;DHT22;3012;49.944;8.454;2023-07-13T05:24:23;19.50;69.50
5972;DHT22;3012;49.944;8.454;2023-07-13T05:26:54;19.60;69.40
5972;DHT22;3012;49.944;8.454;2023-07-13T05:29:24;19.70;69.30
5972;DHT22;3012;49.944;8.454;2023-07-13T05:31:55;19.80;69.00
5972;DHT22;3012;49.944;8.454;2023-07-13T05:34:25;19.60;68.20
5972;DHT22;3012;49.944;8.454;2023-07-13T05:36:56;19.70;68.50
5972;DHT22;3012;49.944;8.454;2023-07-13T05:39:29;19.70;68.00
5972;DHT22;3012;49.944;8.454;2023-07-13T05:41:59;19.30;67.80
5972;DHT22;3012;49.944;8.454;2023-07-13T05:44:30;19.90;67.90
5972;DHT22;3012;49.944;8.454;2023-07-13T05:47:00;19.60;66.60
5972;DHT22;3012;49.944;8.454;2023-07-13T05:49:36;20.00;67.40
5972;DHT22;3012;49.944;8.454;2023-07-13T05:52:06;19.80;67.50
5972;DHT22;3012;49.944;8.454;2023-07-13T05:54:39;20.00;67.50
5972;DHT22;3012;49.944;8.454;2023-07-13T05:57:09;20.10;67.70
5972;DHT22;3012;49.944;8.454;2023-07-13T05:59:44;20.10;67.40
5972;DHT22;3012;49.944;8.454;2023-07-13T06:02:14;20.20;66.80
5972;DHT22;3012;49.944;8.454;2023-07-13T06:04:44;20.10;66.40
5972;DHT22;3012;49.944;8.454;2023-07-13T06:07:18;20.40;66.80
5972;DHT22;3012;49.944;8.454;2023-07-13T06:09:52;20.20;66.50
5972;DHT22;3012;49.944;8.454;2023-07-13T06:12:23;20.40;66.80
5972;DHT22;3012;49.944;8.454;2023-07-13T06:14:53;20.30;64.60
5972;DHT22;3012;49.944;8.454;2023-07-13T06:17:24;20.40;66.00
5972;DHT22;3012;49.944;8.454;2023-07-13T06:19:55;20.40;65.30
5972;DHT22;3012;49.944;8.454;2023-07-13T06:22:27;20.40;65.40
5972;DHT22;3012;49.944;8.454;2023-07-13T06:24:59;20.50;65.60
5972;DHT22;3012;49.944;8.454;2023-07-13T06:27:31;20.60;65.70
5972;DHT22;3012;49.944;8.454;2023-07-13T06:30:02;20.70;65.20
5972;DHT22;3012;49.944;8.454;2023-07-13T06:32:32;20.80;63.30
5972;DHT22;3012;49.944;8.454;2023-07-13T06:35:06;20.80;63.40
5972;DHT22;3012;49.944;8.454;2023-07-13T06:37:36;20.80;63.20
5972;DHT22;3012;49.944;8.454;2023-07-13T06:40:09;20.90;62.60
5972;DHT22;3012;49.944;8.454;2023-07-13T06:42:40;20.90;61.90
5972;DHT22;3012;49.944;8.454;2023-07-13T06:45:10;20.90;62.00
5972;DHT22;3012;49.944;8.454;2023-07-13T06:47:40;21.00;62.70
5972;DHT22;3012;49.944;8.454;2023-07-13T06:50:10;21.10;62.50
5972;DHT22;3012;49.944;8.454;2023-07-13T06:52:40;21.10;62.00
5972;DHT22;3012;49.944;8.454;2023-07-13T06:55:12;20.50;60.60
5972;DHT22;3012;49.944;8.454;2023-07-13T06:57:43;21.20;61.80
5972;DHT22;3012;49.944;8.454;2023-07-13T07:00:14;21.30;61.90
5972;DHT22;3012;49.944;8.454;2023-07-13T07:02:44;21.30;61.40
5972;DHT22;3012;49.944;8.454;2023-07-13T07:05:15;21.30;61.30
5972;DHT22;3012;49.944;8.454;2023-07-13T07:07:45;21.40;61.80
5972;DHT22;3012;49.944;8.454;2023-07-13T07:10:17;21.50;61.90
5972;DHT22;3012;49.944;8.454;2023-07-13T07:12:48;21.50;61.30
5972;DHT22;3012;49.944;8.454;2023-07-13T07:15:19;21.50;60.00
5972;DHT22;3012;49.944;8.454;2023-07-13T07:17:50;21.60;60.60
5972;DHT22;3012;49.944;8.454;2023-07-13T07:20:20;21.70;61.10
5972;DHT22;3012;49.944;8.454;2023-07-13T07:22:50;21.80;60.50
5972;DHT22;3012;49.944;8.454;2023-07-13T07:25:23;22.00;60.90
5972;DHT22;3012;49.944;8.454;2023-07-13T07:27:53;21.90;60.10
5972;DHT22;3012;49.944;8.454;2023-07-13T07:30:26;22.00;60.70
5972;DHT22;3012;49.944;8.454;2023-07-13T07:32:59;22.00;59.80
5972;DHT22;3012;49.944;8.454;2023-07-13T07:35:32;22.10;60.30
5972;DHT22;3012;49.944;8.454;2023-07-13T07:38:22;22.40;60.60
5972;DHT22;3012;49.944;8.454;2023-07-13T07:40:55;22.30;59.40
5972;DHT22;3012;49.944;8.454;2023-07-13T07:43:28;22.30;59.00
5972;DHT22;3012;49.944;8.454;2023-07-13T07:45:58;22.40;58.80
5972;DHT22;3012;49.944;8.454;2023-07-13T07:48:30;22.50;58.80
5972;DHT22;3012;49.944;8.454;2023-07-13T07:51:01;22.60;58.40
5972;DHT22;3012;49.944;8.454;2023-07-13T07:53:31;22.60;57.90
5972;DHT22;3012;49.944;8.454;2023-07-13T07:56:05;22.70;57.80
5972;DHT22;3012;49.944;8.454;2023-07-13T07:58:42;22.80;57.90
5972;DHT22;3012;49.944;8.454;2023-07-13T08:01:15;22.90;57.90
5972;DHT22;3012;49.944;8.454;2023-07-13T08:03:50;23.00;57.70
5972;DHT22;3012;49.944;8.454;2023-07-13T08:06:24;23.30;58.30
5972;DHT22;3012;49.944;8.454;2023-07-13T08:08:57;23.30;57.60
5972;DHT22;3012;49.944;8.454;2023-07-13T08:11:29;23.40;57.20
5972;DHT22;3012;49.944;8.454;2023-07-13T08:14:03;23.50;56.50
5972;DHT22;3012;49.944;8.454;2023-07-13T08:16:33;23.50;56.70
5972;DHT22;3012;49.944;8.454;2023-07-13T08:19:04;23.60;56.80
5972;DHT22;3012;49.944;8.454;2023-07-13T08:21:34;23.80;56.60
5972;DHT22;3012;49.944;8.454;2023-07-13T08:24:06;23.90;56.00
5972;DHT22;3012;49.944;8.454;2023-07-13T08:26:39;23.90;55.30
5972;DHT22;3012;49.944;8.454;2023-07-13T08:29:10;24.00;56.20
5972;DHT22;3012;49.944;8.454;2023-07-13T08:31:41;24.00;55.60
5972;DHT22;3012;49.944;8.454;2023-07-13T08:34:12;24.10;55.60
5972;DHT22;3012;49.944;8.454;2023-07-13T08:36:44;24.10;54.80
5972;DHT22;3012;49.944;8.454;2023-07-13T08:39:14;24.10;54.90
5972;DHT22;3012;49.944;8.454;2023-07-13T08:41:48;24.10;55.30
5972;DHT22;3012;49.944;8.454;2023-07-13T08:44:30;24.10;55.00
5972;DHT22;3012;49.944;8.454;2023-07-13T08:47:05;24.10;54.70
5972;DHT22;3012;49.944;8.454;2023-07-13T08:49:36;24.00;54.70
5972;DHT22;3012;49.944;8.454;2023-07-13T08:52:15;24.00;54.40
5972;DHT22;3012;49.944;8.454;2023-07-13T08:54:50;24.00;53.70
5972;DHT22;3012;49.944;8.454;2023-07-13T08:57:27;24.10;53.60
5972;DHT22;3012;49.944;8.454;2023-07-13T09:00:03;24.20;52.90
5972;DHT22;3012;49.944;8.454;2023-07-13T09:02:42;24.30;53.70
5972;DHT22;3012;49.944;8.454;2023-07-13T09:05:18;24.30;52.40
5972;DHT22;3012;49.944;8.454;2023-07-13T09:08:06;24.20;52.10
5972;DHT22;3012;49.944;8.454;2023-07-13T09:10:43;24.40;51.30
5972;DHT22;3012;49.944;8.454;2023-07-13T09:13:24;24.40;50.90
5972;DHT22;3012;49.944;8.454;2023-07-13T09:15:59;24.60;51.10
5972;DHT22;3012;49.944;8.454;2023-07-13T09:18:33;24.70;50.50
5972;DHT22;3012;49.944;8.454;2023-07-13T09:21:09;24.90;50.70
5972;DHT22;3012;49.944;8.454;2023-07-13T09:23:41;25.00;49.70
5972;DHT22;3012;49.944;8.454;2023-07-13T09:26:18;25.00;49.30
5972;DHT22;3012;49.944;8.454;2023-07-13T09:28:54;25.10;49.90
5972;DHT22;3012;49.944;8.454;2023-07-13T09:31:32;25.10;49.90
5972;DHT22;3012;49.944;8.454;2023-07-13T09:34:06;25.20;49.30
5972;DHT22;3012;49.944;8.454;2023-07-13T09:36:39;25.40;49.70
5972;DHT22;3012;49.944;8.454;2023-07-13T09:39:15;25.40;48.40
5972;DHT22;3012;49.944;8.454;2023-07-13T09:41:55;25.60;49.50
5972;DHT22;3012;49.944;8.454;2023-07-13T09:44:33;25.90;49.10
5972;DHT22;3012;49.944;8.454;2023-07-13T09:47:16;25.60;49.20
5972;DHT22;3012;49.944;8.454;2023-07-13T09:49:48;25.70;48.50
5972;DHT22;3012;49.944;8.454;2023-07-13T09:52:40;25.80;49.10
5972;DHT22;3012;49.944;8.454;2023-07-13T09:55:26;25.70;47.70
5972;DHT22;3012;49.944;8.454;2023-07-13T09:57:58;25.70;47.50
5972;DHT22;3012;49.944;8.454;2023-07-13T10:00:37;25.70;47.90
5972;DHT22;3012;49.944;8.454;2023-07-13T10:38:06;26.60;46.00
5972;DHT22;3012;49.944;8.454;2023-07-13T10:40:48;26.60;45.70
5972;DHT22;3012;49.944;8.454;2023-07-13T10:55:37;27.30;44.60
5972;DHT22;3012;49.944;8.454;2023-07-13T11:14:02;27.30;43.60
5972;DHT22;3012;49.944;8.454;2023-07-13T11:17:35;27.30;44.10
5972;DHT22;3012;49.944;8.454;2023-07-13T11:20:53;26.80;45.00
5972;DHT22;3012;49.944;8.454;2023-07-13T11:42:52;26.00;46.20
5972;DHT22;3012;49.944;8.454;2023-07-13T11:45:30;25.80;45.90
5972;DHT22;3012;49.944;8.454;2023-07-13T11:48:33;25.70;46.30
5972;DHT22;3012;49.944;8.454;2023-07-13T12:02:47;26.40;44.60
5972;DHT22;3012;49.944;8.454;2023-07-13T12:34:07;26.90;43.10
5972;DHT22;3012;49.944;8.454;2023-07-13T12:37:08;27.10;43.40
5972;DHT22;3012;49.944;8.454;2023-07-13T12:39:48;27.50;44.30
5972;DHT22;3012;49.944;8.454;2023-07-13T12:42:28;27.00;43.50
5972;DHT22;3012;49.944;8.454;2023-07-13T14:01:21;25.80;46.30
5972;DHT22;3012;49.944;8.454;2023-07-13T14:04:06;26.10;46.60
5972;DHT22;3012;49.944;8.454;2023-07-13T14:06:52;26.20;45.80
5972;DHT22;3012;49.944;8.454;2023-07-13T14:09:27;26.20;45.50
5972;DHT22;3012;49.944;8.454;2023-07-13T14:12:01;26.20;45.60
5972;DHT22;3012;49.944;8.454;2023-07-13T14:18:48;26.10;46.20
5972;DHT22;3012;49.944;8.454;2023-07-13T14:21:24;26.00;45.20
5972;DHT22;3012;49.944;8.454;2023-07-13T14:23:55;26.20;45.20
5972;DHT22;3012;49.944;8.454;2023-07-13T14:26:26;26.20;45.70
5972;DHT22;3012;49.944;8.454;2023-07-13T14:28:57;26.10;45.10
5972;DHT22;3012;49.944;8.454;2023-07-13T14:31:27;26.20;45.60
5972;DHT22;3012;49.944;8.454;2023-07-13T14:33:59;26.00;45.60
5972;DHT22;3012;49.944;8.454;2023-07-13T14:36:31;26.10;44.80
5972;DHT22;3012;49.944;8.454;2023-07-13T14:39:20;26.00;45.10
5972;DHT22;3012;49.944;8.454;2023-07-13T14:41:51;25.90;44.70
5972;DHT22;3012;49.944;8.454;2023-07-13T14:44:22;25.80;45.00
5972;DHT22;3012;49.944;8.454;2023-07-13T14:46:52;25.70;45.90
5972;DHT22;3012;49.944;8.454;2023-07-13T14:49:24;25.60;46.60
5972;DHT22;3012;49.944;8.454;2023-07-13T14:51:55;25.60;46.80
5972;DHT22;3012;49.944;8.454;2023-07-13T14:54:24;25.50;47.10
5972;DHT22;3012;49.944;8.454;2023-07-13T14:56:52;25.50;47.10
5972;DHT22;3012;49.944;8.454;2023-07-13T14:59:20;25.50;47.30
5972;DHT22;3012;49.944;8.454;2023-07-13T15:01:50;25.50;46.80
5972;DHT22;3012;49.944;8.454;2023-07-13T15:04:18;25.50;47.30
5972;DHT22;3012;49.944;8.454;2023-07-13T15:06:58;25.50;46.70
5972;DHT22;3012;49.944;8.454;2023-07-13T15:09:27;25.60;46.50
5972;DHT22;3012;49.944;8.454;2023-07-13T15:11:57;25.80;46.70
5972;DHT22;3012;49.944;8.454;2023-07-13T15:14:25;25.90;46.00
5972;DHT22;3012;49.944;8.454;2023-07-13T15:16:57;25.90;45.80
5972;DHT22;3012;49.944;8.454;2023-07-13T15:19:26;25.80;45.80
5972;DHT22;3012;49.944;8.454;2023-07-13T15:21:56;25.80;46.50
5972;DHT22;3012;49.944;8.454;2023-07-13T15:24:25;25.60;45.90
5972;DHT22;3012;49.944;8.454;2023-07-13T15:26:53;25.40;46.00
5972;DHT22;3012;49.944;8.454;2023-07-13T15:29:21;25.50;46.80
5972;DHT22;3012;49.944;8.454;2023-07-13T15:31:49;25.50;47.00
5972;DHT22;3012;49.944;8.454;2023-07-13T15:34:23;25.50;46.70
5972;DHT22;3012;49.944;8.454;2023-07-13T15:36:52;25.50;47.10
5972;DHT22;3012;49.944;8.454;2023-07-13T15:39:22;25.50;46.60
5972;DHT22;3012;49.944;8.454;2023-07-13T15:41:52;25.50;47.00
5972;DHT22;3012;49.944;8.454;2023-07-13T15:44:25;25.60;46.70
5972;DHT22;3012;49.944;8.454;2023-07-13T15:46:54;25.60;46.20
5972;DHT22;3012;49.944;8.454;2023-07-13T15:49:23;25.70;46.70
5972;DHT22;3012;49.944;8.454;2023-07-13T15:51:51;25.70;46.60
5972;DHT22;3012;49.944;8.454;2023-07-13T15:54:19;25.70;46.70
5972;DHT22;3012;49.944;8.454;2023-07-13T15:56:52;25.70;46.30
5972;DHT22;3012;49.944;8.454;2023-07-13T15:59:21;25.70;46.10
5972;DHT22;3012;49.944;8.454;2023-07-13T16:01:49;25.70;46.30
5972;DHT22;3012;49.944;8.454;2023-07-13T16:04:17;25.70;45.80
5972;DHT22;3012;49.944;8.454;2023-07-13T16:06:47;25.50;46.10
5972;DHT22;3012;49.944;8.454;2023-07-13T16:09:19;25.40;45.20
5972;DHT22;3012;49.944;8.454;2023-07-13T16:11:51;25.40;45.40
5972;DHT22;3012;49.944;8.454;2023-07-13T16:14:21;25.30;45.80
5972;DHT22;3012;49.944;8.454;2023-07-13T16:16:51;25.30;46.00
5972;DHT22;3012;49.944;8.454;2023-07-13T16:19:23;25.30;46.20
5972;DHT22;3012;49.944;8.454;2023-07-13T16:21:56;25.40;46.70
5972;DHT22;3012;49.944;8.454;2023-07-13T16:24:26;25.40;46.90
5972;DHT22;3012;49.944;8.454;2023-07-13T16:26:57;25.50;46.70
5972;DHT22;3012;49.944;8.454;2023-07-13T16:29:30;25.50;46.50
5972;DHT22;3012;49.944;8.454;2023-07-13T16:32:00;25.40;46.70
5972;DHT22;3012;49.944;8.454;2023-07-13T16:34:30;25.40;46.30
5972;DHT22;3012;49.944;8.454;2023-07-13T16:36:59;25.30;46.70
5972;DHT22;3012;49.944;8.454;2023-07-13T16:39:27;25.20;46.10
5972;DHT22;3012;49.944;8.454;2023-07-13T16:41:58;25.20;46.40
5972;DHT22;3012;49.944;8.454;2023-07-13T16:44:32;25.20;46.10
5972;DHT22;3012;49.944;8.454;2023-07-13T16:47:00;25.30;46.60
5972;DHT22;3012;49.944;8.454;2023-07-13T16:49:29;25.20;46.40
5972;DHT22;3012;49.944;8.454;2023-07-13T16:51:58;25.20;46.20
5972;DHT22;3012;49.944;8.454;2023-07-13T16:54:30;25.10;46.10
5972;DHT22;3012;49.944;8.454;2023-07-13T16:57:01;25.10;45.90
5972;DHT22;3012;49.944;8.454;2023-07-13T16:59:32;25.10;46.10
5972;DHT22;3012;49.944;8.454;2023-07-13T17:02:02;25.10;46.60
5972;DHT22;3012;49.944;8.454;2023-07-13T17:04:36;25.00;46.40
5972;DHT22;3012;49.944;8.454;2023-07-13T17:07:07;25.10;45.90
5972;DHT22;3012;49.944;8.454;2023-07-13T17:09:35;25.20;45.50
5972;DHT22;3012;49.944;8.454;2023-07-13T17:12:06;25.20;45.80
5972;DHT22;3012;49.944;8.454;2023-07-13T17:14:36;25.30;46.40
5972;DHT22;3012;49.944;8.454;2023-07-13T17:17:14;25.30;45.30
5972;DHT22;3012;49.944;8.454;2023-07-13T17:19:44;25.30;45.30
5972;DHT22;3012;49.944;8.454;2023-07-13T17:22:12;25.30;45.00
5972;DHT22;3012;49.944;8.454;2023-07-13T17:24:44;25.20;45.20
5972;DHT22;3012;49.944;8.454;2023-07-13T17:27:16;25.30;45.70
5972;DHT22;3012;49.944;8.454;2023-07-13T17:29:44;25.30;46.10
5972;DHT22;3012;49.944;8.454;2023-07-13T17:32:16;25.20;45.30
5972;DHT22;3012;49.944;8.454;2023-07-13T17:34:45;25.30;45.60
5972;DHT22;3012;49.944;8.454;2023-07-13T17:37:14;25.20;45.40
5972;DHT22;3012;49.944;8.454;2023-07-13T17:39:42;25.20;45.30
5972;DHT22;3012;49.944;8.454;2023-07-13T17:42:11;25.10;45.20
5972;DHT22;3012;49.944;8.454;2023-07-13T17:44:41;25.00;45.10
5972;DHT22;3012;49.944;8.454;2023-07-13T17:47:22;24.90;45.20
5972;DHT22;3012;49.944;8.454;2023-07-13T17:49:51;24.90;45.60
5972;DHT22;3012;49.944;8.454;2023-07-13T17:52:19;24.80;45.80
5972;DHT22;3012;49.944;8.454;2023-07-13T17:54:47;24.70;45.50
5972;DHT22;3012;49.944;8.454;2023-07-13T17:57:17;24.70;45.60
5972;DHT22;3012;49.944;8.454;2023-07-13T17:59:46;24.60;45.70
5972;DHT22;3012;49.944;8.454;2023-07-13T18:02:17;24.60;45.70
5972;DHT22;3012;49.944;8.454;2023-07-13T18:04:46;24.60;45.70
5972;DHT22;3012;49.944;8.454;2023-07-13T18:07:15;24.60;46.10
5972;DHT22;3012;49.944;8.454;2023-07-13T18:09:44;24.50;45.70
5972;DHT22;3012;49.944;8.454;2023-07-13T18:12:13;24.40;45.90
5972;DHT22;3012;49.944;8.454;2023-07-13T18:14:42;24.40;46.20
5972;DHT22;3012;49.944;8.454;2023-07-13T18:17:13;24.30;46.00
5972;DHT22;3012;49.944;8.454;2023-07-13T18:19:44;24.30;46.30
5972;DHT22;3012;49.944;8.454;2023-07-13T18:22:14;24.20;46.30
5972;DHT22;3012;49.944;8.454;2023-07-13T18:24:43;24.20;46.80
5972;DHT22;3012;49.944;8.454;2023-07-13T18:27:11;24.20;46.30
5972;DHT22;3012;49.944;8.454;2023-07-13T18:29:39;24.20;46.40
5972;DHT22;3012;49.944;8.454;2023-07-13T18:32:16;24.20;46.30
5972;DHT22;3012;49.944;8.454;2023-07-13T18:34:47;24.10;46.60
5972;DHT22;3012;49.944;8.454;2023-07-13T18:37:20;24.10;46.70
5972;DHT22;3012;49.944;8.454;2023-07-13T18:39:51;24.10;47.10
5972;DHT22;3012;49.944;8.454;2023-07-13T18:42:19;24.10;47.30
5972;DHT22;3012;49.944;8.454;2023-07-13T18:44:49;24.10;46.90
5972;DHT22;3012;49.944;8.454;2023-07-13T18:47:20;24.10;47.00
5972;DHT22;3012;49.944;8.454;2023-07-13T18:49:51;24.10;47.20
5972;DHT22;3012;49.944;8.454;2023-07-13T18:52:23;24.10;47.40
5972;DHT22;3012;49.944;8.454;2023-07-13T18:54:52;24.00;47.50
5972;DHT22;3012;49.944;8.454;2023-07-13T18:57:20;24.00;47.70
5972;DHT22;3012;49.944;8.454;2023-07-13T18:59:48;24.00;47.70
5972;DHT22;3012;49.944;8.454;2023-07-13T19:02:16;24.00;47.90
5972;DHT22;3012;49.944;8.454;2023-07-13T19:04:48;24.00;48.50
5972;DHT22;3012;49.944;8.454;2023-07-13T19:07:16;24.00;50.10
5972;DHT22;3012;49.944;8.454;2023-07-13T19:09:44;24.00;50.40
5972;DHT22;3012;49.944;8.454;2023-07-13T19:12:17;23.90;50.90
5972;DHT22;3012;49.944;8.454;2023-07-13T19:14:47;23.80;50.70
5972;DHT22;3012;49.944;8.454;2023-07-13T19:17:16;23.80;50.80
5972;DHT22;3012;49.944;8.454;2023-07-13T19:19:45;23.80;51.40
5972;DHT22;3012;49.944;8.454;2023-07-13T19:22:16;23.70;51.60
5972;DHT22;3012;49.944;8.454;2023-07-13T19:24:46;23.60;51.20
5972;DHT22;3012;49.944;8.454;2023-07-13T19:27:14;23.50;51.40
5972;DHT22;3012;49.944;8.454;2023-07-13T19:29:43;23.50;51.30
5972;DHT22;3012;49.944;8.454;2023-07-13T19:32:12;23.40;51.50
5972;DHT22;3012;49.944;8.454;2023-07-13T19:34:40;23.40;51.50
5972;DHT22;3012;49.944;8.454;2023-07-13T19:37:17;23.40;51.40
5972;DHT22;3012;49.944;8.454;2023-07-13T19:39:48;23.30;51.90
5972;DHT22;3012;49.944;8.454;2023-07-13T19:42:20;23.30;51.80
5972;DHT22;3012;49.944;8.454;2023-07-13T19:44:49;23.20;51.80
5972;DHT22;3012;49.944;8.454;2023-07-13T19:47:18;23.30;51.90
5972;DHT22;3012;49.944;8.454;2023-07-13T19:49:47;23.20;51.90
5972;DHT22;3012;49.944;8.454;2023-07-13T19:52:17;23.20;51.40
5972;DHT22;3012;49.944;8.454;2023-07-13T19:54:49;23.20;51.60
5972;DHT22;3012;49.944;8.454;2023-07-13T19:57:19;23.20;51.90